KMSS/MSS METAR and TAF weather

Enter ICAO airport designator
Station Type Date Time Source
KMSS METAR 2020/07/14 04:53 UTC NOAA

KMSS 140453Z AUTO 00000KT 10SM CLR 18/17 A2989 RMK AO2 SLP120 T01830167 402720172


Station Type Date Time Source
KMSS Decoded METAR 2020/07/14 04:53 UTC NOAA

MASSENA INTERNATIONAL -RICHARDS FLD, NY, United States (KMSS) 44-56N 074-51W 66M
Jul 14, 2020 - 12:53 AM EDT / 2020.07.14 0453 UTC
Wind: Calm:0
Visibility: 10 mile(s):0
Sky conditions: clear
Temperature: 64.9 F (18.3 C)
Dew Point: 62.1 F (16.7 C)
Relative Humidity: 90%
Pressure (altimeter): 29.89 in. Hg (1012 hPa)
ob: KMSS 140453Z AUTO 00000KT 10SM CLR 18/17 A2989 RMK AO2 SLP120 T01830167 402720172
cycle: 5

Station Type Date Time Source
KMSS TAF 2020/07/14 06:22 UTC NOAA

TAF KMSS 140520Z 1406/1506 VRB03KT P6SM SCT150
FM141300 02006KT P6SM BKN050
FM142100 03008KT P6SM FEW150

Example: see airport list